sensor_id;sensor_type;location;lat;lon;timestamp;pressure;altitude;pressure_sealevel;temperature;humidity
17060;BME280;8646;49.716;9.266;2023-05-15T00:01:40;99931.75;;;13.70;92.44
17060;BME280;8646;49.716;9.266;2023-05-15T00:04:43;99928.50;;;13.63;92.33
17060;BME280;8646;49.716;9.266;2023-05-15T00:07:47;99925.03;;;13.61;92.50
17060;BME280;8646;49.716;9.266;2023-05-15T00:10:50;99923.91;;;13.50;92.83
17060;BME280;8646;49.716;9.266;2023-05-15T00:14:03;99923.59;;;13.40;92.61
17060;BME280;8646;49.716;9.266;2023-05-15T00:17:12;99916.63;;;13.36;92.30
17060;BME280;8646;49.716;9.266;2023-05-15T00:20:14;99928.72;;;13.30;92.88
17060;BME280;8646;49.716;9.266;2023-05-15T00:23:18;99923.72;;;13.23;93.15
17060;BME280;8646;49.716;9.266;2023-05-15T00:26:23;99926.56;;;13.21;93.55
17060;BME280;8646;49.716;9.266;2023-05-15T00:29:26;99929.63;;;13.15;93.86
17060;BME280;8646;49.716;9.266;2023-05-15T00:32:29;99924.44;;;13.11;93.93
17060;BME280;8646;49.716;9.266;2023-05-15T00:35:35;99921.03;;;13.07;93.70
17060;BME280;8646;49.716;9.266;2023-05-15T00:38:39;99918.31;;;13.07;94.24
17060;BME280;8646;49.716;9.266;2023-05-15T00:41:42;99921.22;;;13.04;94.54
17060;BME280;8646;49.716;9.266;2023-05-15T00:44:47;99918.50;;;13.04;94.66
17060;BME280;8646;49.716;9.266;2023-05-15T00:47:50;99915.78;;;13.04;94.62
17060;BME280;8646;49.716;9.266;2023-05-15T00:50:54;99913.84;;;13.06;94.82
17060;BME280;8646;49.716;9.266;2023-05-15T00:54:00;99913.84;;;13.06;94.93
17060;BME280;8646;49.716;9.266;2023-05-15T00:57:04;99913.84;;;13.06;95.12
17060;BME280;8646;49.716;9.266;2023-05-15T01:00:11;99909.41;;;13.05;94.77
17060;BME280;8646;49.716;9.266;2023-05-15T01:03:17;99908.41;;;13.06;95.75
17060;BME280;8646;49.716;9.266;2023-05-15T01:06:20;99914.03;;;13.03;96.01
17060;BME280;8646;49.716;9.266;2023-05-15T01:09:26;99902.47;;;12.99;95.34
17060;BME280;8646;49.716;9.266;2023-05-15T01:12:33;99905.97;;;13.02;95.43
17060;BME280;8646;49.716;9.266;2023-05-15T01:15:37;99903.84;;;13.07;95.07
17060;BME280;8646;49.716;9.266;2023-05-15T01:18:40;99907.28;;;13.10;95.35
17060;BME280;8646;49.716;9.266;2023-05-15T01:22:09;99904.41;;;13.13;95.02
17060;BME280;8646;49.716;9.266;2023-05-15T01:25:49;99905.09;;;13.17;95.00
17060;BME280;8646;49.716;9.266;2023-05-15T01:29:03;99893.97;;;13.21;94.84
17060;BME280;8646;49.716;9.266;2023-05-15T01:32:08;99902.41;;;13.31;95.08
17060;BME280;8646;49.716;9.266;2023-05-15T01:35:17;99902.25;;;13.34;94.99
17060;BME280;8646;49.716;9.266;2023-05-15T01:38:26;99901.34;;;13.33;94.90
17060;BME280;8646;49.716;9.266;2023-05-15T01:41:37;99896.09;;;13.30;94.96
17060;BME280;8646;49.716;9.266;2023-05-15T01:44:50;99897.19;;;13.28;94.65
17060;BME280;8646;49.716;9.266;2023-05-15T01:47:55;99894.38;;;13.29;95.01
17060;BME280;8646;49.716;9.266;2023-05-15T01:51:01;99898.94;;;13.29;95.02
17060;BME280;8646;49.716;9.266;2023-05-15T01:54:05;99899.81;;;13.29;94.45
17060;BME280;8646;49.716;9.266;2023-05-15T01:57:10;99898.81;;;13.30;94.45
17060;BME280;8646;49.716;9.266;2023-05-15T02:00:15;99890.88;;;13.27;94.48
17060;BME280;8646;49.716;9.266;2023-05-15T02:03:19;99890.72;;;13.15;94.53
17060;BME280;8646;49.716;9.266;2023-05-15T02:06:23;99893.84;;;13.07;94.86
17060;BME280;8646;49.716;9.266;2023-05-15T02:09:27;99891.59;;;12.99;94.41
17060;BME280;8646;49.716;9.266;2023-05-15T02:12:30;99890.38;;;12.89;94.96
17060;BME280;8646;49.716;9.266;2023-05-15T02:15:36;99890.66;;;12.85;95.14
17060;BME280;8646;49.716;9.266;2023-05-15T02:18:42;99889.38;;;12.76;95.04
17060;BME280;8646;49.716;9.266;2023-05-15T02:21:45;99894.13;;;12.73;95.52
17060;BME280;8646;49.716;9.266;2023-05-15T02:24:47;99892.81;;;12.64;95.22
17060;BME280;8646;49.716;9.266;2023-05-15T02:27:54;99892.19;;;12.59;95.24
17060;BME280;8646;49.716;9.266;2023-05-15T02:31:04;99889.84;;;12.53;95.94
17060;BME280;8646;49.716;9.266;2023-05-15T02:34:17;99888.50;;;12.44;96.01
17060;BME280;8646;49.716;9.266;2023-05-15T02:37:26;99888.97;;;12.37;96.43
17060;BME280;8646;49.716;9.266;2023-05-15T02:40:30;99887.28;;;12.34;96.29
17060;BME280;8646;49.716;9.266;2023-05-15T02:43:35;99889.22;;;12.32;96.47
17060;BME280;8646;49.716;9.266;2023-05-15T02:46:39;99891.06;;;12.32;96.47
17060;BME280;8646;49.716;9.266;2023-05-15T02:49:43;99878.38;;;12.32;96.58
17060;BME280;8646;49.716;9.266;2023-05-15T02:52:46;99882.81;;;12.33;96.60
17060;BME280;8646;49.716;9.266;2023-05-15T02:55:49;99884.13;;;12.26;96.37
17060;BME280;8646;49.716;9.266;2023-05-15T02:58:52;99879.78;;;12.23;96.69
17060;BME280;8646;49.716;9.266;2023-05-15T03:01:56;99877.31;;;12.19;96.66
17060;BME280;8646;49.716;9.266;2023-05-15T03:05:00;99886.25;;;12.21;96.73
17060;BME280;8646;49.716;9.266;2023-05-15T03:08:09;99876.41;;;12.18;96.52
17060;BME280;8646;49.716;9.266;2023-05-15T03:11:11;99883.53;;;12.21;96.71
17060;BME280;8646;49.716;9.266;2023-05-15T03:14:15;99879.78;;;12.23;97.08
17060;BME280;8646;49.716;9.266;2023-05-15T03:17:21;99875.03;;;12.27;97.36
17060;BME280;8646;49.716;9.266;2023-05-15T03:20:24;99873.78;;;12.33;97.10
17060;BME280;8646;49.716;9.266;2023-05-15T03:23:26;99877.75;;;12.43;97.01
17060;BME280;8646;49.716;9.266;2023-05-15T03:26:29;99876.53;;;12.48;97.42
17060;BME280;8646;49.716;9.266;2023-05-15T03:29:38;99872.94;;;12.48;97.11
17060;BME280;8646;49.716;9.266;2023-05-15T03:32:42;99879.84;;;12.53;97.03
17060;BME280;8646;49.716;9.266;2023-05-15T03:35:45;99879.41;;;12.61;96.79
17060;BME280;8646;49.716;9.266;2023-05-15T03:38:51;99871.78;;;12.68;96.38
17060;BME280;8646;49.716;9.266;2023-05-15T03:41:54;99870.81;;;12.69;96.51
17060;BME280;8646;49.716;9.266;2023-05-15T03:44:57;99858.72;;;12.74;96.37
17060;BME280;8646;49.716;9.266;2023-05-15T03:48:01;99870.94;;;12.81;95.66
17060;BME280;8646;49.716;9.266;2023-05-15T03:51:04;99880.97;;;12.81;95.54
17060;BME280;8646;49.716;9.266;2023-05-15T03:54:07;99867.47;;;12.79;95.58
17060;BME280;8646;49.716;9.266;2023-05-15T03:57:11;99866.41;;;12.82;95.33
17060;BME280;8646;49.716;9.266;2023-05-15T04:00:14;99868.88;;;12.86;94.86
17060;BME280;8646;49.716;9.266;2023-05-15T04:03:21;99866.06;;;12.88;94.82
17060;BME280;8646;49.716;9.266;2023-05-15T04:06:24;99859.66;;;12.89;94.55
17060;BME280;8646;49.716;9.266;2023-05-15T04:09:27;99860.72;;;12.86;94.75
17060;BME280;8646;49.716;9.266;2023-05-15T04:12:33;99864.69;;;12.81;94.40
17060;BME280;8646;49.716;9.266;2023-05-15T04:15:36;99864.75;;;12.79;94.69
17060;BME280;8646;49.716;9.266;2023-05-15T04:18:40;99868.25;;;12.81;94.16
17060;BME280;8646;49.716;9.266;2023-05-15T04:21:43;99866.41;;;12.82;94.50
17060;BME280;8646;49.716;9.266;2023-05-15T04:24:46;99871.16;;;12.78;94.90
17060;BME280;8646;49.716;9.266;2023-05-15T04:27:48;99872.81;;;12.81;94.44
17060;BME280;8646;49.716;9.266;2023-05-15T04:30:51;99862.06;;;12.79;94.24
17060;BME280;8646;49.716;9.266;2023-05-15T04:33:55;99864.56;;;12.82;93.95
17060;BME280;8646;49.716;9.266;2023-05-15T04:36:58;99865.28;;;12.86;93.71
17060;BME280;8646;49.716;9.266;2023-05-15T04:40:03;99862.88;;;12.95;93.54
17060;BME280;8646;49.716;9.266;2023-05-15T04:43:06;99866.91;;;13.04;93.06
17060;BME280;8646;49.716;9.266;2023-05-15T04:46:09;99864.78;;;13.09;93.02
17060;BME280;8646;49.716;9.266;2023-05-15T04:49:13;99861.09;;;13.10;93.01
17060;BME280;8646;49.716;9.266;2023-05-15T04:52:17;99868.28;;;13.11;93.02
17060;BME280;8646;49.716;9.266;2023-05-15T04:55:19;99864.78;;;13.09;92.59
17060;BME280;8646;49.716;9.266;2023-05-15T04:58:23;99871.88;;;13.12;92.06
17060;BME280;8646;49.716;9.266;2023-05-15T05:01:25;99876.34;;;13.13;92.40
17060;BME280;8646;49.716;9.266;2023-05-15T05:04:29;99878.19;;;13.12;92.23
17060;BME280;8646;49.716;9.266;2023-05-15T05:07:32;99875.28;;;13.15;91.86
17060;BME280;8646;49.716;9.266;2023-05-15T05:10:36;99878.81;;;13.17;92.28
17060;BME280;8646;49.716;9.266;2023-05-15T05:13:38;99878.81;;;13.17;91.93
17060;BME280;8646;49.716;9.266;2023-05-15T05:16:43;99881.94;;;13.25;91.82
17060;BME280;8646;49.716;9.266;2023-05-15T05:19:47;99881.28;;;13.36;91.30
17060;BME280;8646;49.716;9.266;2023-05-15T05:22:50;99876.34;;;13.43;90.71
17060;BME280;8646;49.716;9.266;2023-05-15T05:25:52;99880.59;;;13.47;90.28
17060;BME280;8646;49.716;9.266;2023-05-15T05:28:55;99896.25;;;13.43;89.79
17060;BME280;8646;49.716;9.266;2023-05-15T05:31:58;99893.63;;;13.42;89.79
17060;BME280;8646;49.716;9.266;2023-05-15T05:35:03;99885.28;;;13.45;89.34
17060;BME280;8646;49.716;9.266;2023-05-15T05:38:06;99885.88;;;13.50;89.00
17060;BME280;8646;49.716;9.266;2023-05-15T05:41:09;99888.59;;;13.64;88.60
17060;BME280;8646;49.716;9.266;2023-05-15T05:44:12;99889.00;;;13.72;88.36
17060;BME280;8646;49.716;9.266;2023-05-15T05:47:15;99883.56;;;13.72;88.41
17060;BME280;8646;49.716;9.266;2023-05-15T05:50:19;99881.06;;;13.69;88.23
17060;BME280;8646;49.716;9.266;2023-05-15T05:53:22;99888.41;;;13.67;88.20
17060;BME280;8646;49.716;9.266;2023-05-15T05:56:25;99891.94;;;13.69;88.23
17060;BME280;8646;49.716;9.266;2023-05-15T05:59:27;99891.94;;;13.83;87.88
17060;BME280;8646;49.716;9.266;2023-05-15T06:02:30;99884.81;;;14.23;86.72
17060;BME280;8646;49.716;9.266;2023-05-15T06:05:34;99889.94;;;14.56;85.37
17060;BME280;8646;49.716;9.266;2023-05-15T06:08:37;99875.34;;;15.11;83.91
17060;BME280;8646;49.716;9.266;2023-05-15T06:11:40;99869.34;;;15.58;81.79
17060;BME280;8646;49.716;9.266;2023-05-15T06:14:43;99864.66;;;15.98;80.91
17060;BME280;8646;49.716;9.266;2023-05-15T06:17:45;99866.31;;;16.13;80.01
17060;BME280;8646;49.716;9.266;2023-05-15T06:20:52;99870.31;;;16.20;79.60
17060;BME280;8646;49.716;9.266;2023-05-15T06:23:55;99863.06;;;16.81;77.74
17060;BME280;8646;49.716;9.266;2023-05-15T06:26:58;99857.38;;;17.54;74.20
17060;BME280;8646;49.716;9.266;2023-05-15T06:30:08;99856.63;;;17.98;72.19
17060;BME280;8646;49.716;9.266;2023-05-15T06:33:11;99851.75;;;18.02;71.17
17060;BME280;8646;49.716;9.266;2023-05-15T06:36:15;99858.38;;;17.99;71.49
17060;BME280;8646;49.716;9.266;2023-05-15T06:39:18;99864.69;;;17.88;71.84
17060;BME280;8646;49.716;9.266;2023-05-15T06:42:20;99858.38;;;17.99;71.84
17060;BME280;8646;49.716;9.266;2023-05-15T06:45:23;99864.84;;;17.98;70.91
17060;BME280;8646;49.716;9.266;2023-05-15T06:48:28;99875.25;;;17.71;71.91
17060;BME280;8646;49.716;9.266;2023-05-15T06:51:32;99866.78;;;17.39;72.67
17060;BME280;8646;49.716;9.266;2023-05-15T06:54:35;99870.91;;;17.09;73.69
17060;BME280;8646;49.716;9.266;2023-05-15T06:57:38;99869.91;;;16.87;74.49
17060;BME280;8646;49.716;9.266;2023-05-15T07:00:40;99878.53;;;16.69;75.00
17060;BME280;8646;49.716;9.266;2023-05-15T07:03:43;99875.09;;;16.78;74.78
17060;BME280;8646;49.716;9.266;2023-05-15T07:06:47;99866.13;;;17.24;73.60
17060;BME280;8646;49.716;9.266;2023-05-15T07:09:50;99859.84;;;17.81;71.54
17060;BME280;8646;49.716;9.266;2023-05-15T07:12:53;99860.13;;;18.22;70.22
17060;BME280;8646;49.716;9.266;2023-05-15T07:15:56;99851.63;;;18.37;69.19
17060;BME280;8646;49.716;9.266;2023-05-15T07:18:59;99853.25;;;18.28;69.15
17060;BME280;8646;49.716;9.266;2023-05-15T07:22:03;99851.47;;;18.49;68.48
17060;BME280;8646;49.716;9.266;2023-05-15T07:25:07;99843.72;;;18.88;66.50
17060;BME280;8646;49.716;9.266;2023-05-15T07:28:12;99834.53;;;18.66;66.28
17060;BME280;8646;49.716;9.266;2023-05-15T07:31:15;99839.03;;;18.67;66.31
17060;BME280;8646;49.716;9.266;2023-05-15T07:34:17;99835.94;;;19.04;65.15
17060;BME280;8646;49.716;9.266;2023-05-15T07:37:21;99833.19;;;19.57;63.65
17060;BME280;8646;49.716;9.266;2023-05-15T07:40:25;99827.91;;;19.95;62.30
17060;BME280;8646;49.716;9.266;2023-05-15T07:43:28;99832.50;;;20.15;61.54
17060;BME280;8646;49.716;9.266;2023-05-15T07:46:30;99832.41;;;19.96;61.23
17060;BME280;8646;49.716;9.266;2023-05-15T07:49:33;99824.88;;;19.68;62.10
17060;BME280;8646;49.716;9.266;2023-05-15T07:52:42;99817.16;;;19.41;62.99
17060;BME280;8646;49.716;9.266;2023-05-15T07:55:45;99823.19;;;19.35;63.59
17060;BME280;8646;49.716;9.266;2023-05-15T07:58:48;99817.88;;;19.22;63.99
17060;BME280;8646;49.716;9.266;2023-05-15T08:01:51;99812.47;;;19.11;64.88
17060;BME280;8646;49.716;9.266;2023-05-15T08:04:54;99820.69;;;19.11;65.49
17060;BME280;8646;49.716;9.266;2023-05-15T08:07:59;99820.50;;;18.92;65.73
17060;BME280;8646;49.716;9.266;2023-05-15T08:11:05;99819.28;;;18.85;66.39
17060;BME280;8646;49.716;9.266;2023-05-15T08:14:10;99819.53;;;18.82;66.50
17060;BME280;8646;49.716;9.266;2023-05-15T08:17:14;99812.59;;;18.78;66.47
17060;BME280;8646;49.716;9.266;2023-05-15T08:20:18;99814.25;;;18.69;66.21
17060;BME280;8646;49.716;9.266;2023-05-15T08:23:22;99813.72;;;18.75;66.23
17060;BME280;8646;49.716;9.266;2023-05-15T08:26:25;99811.72;;;18.77;65.70
17060;BME280;8646;49.716;9.266;2023-05-15T08:29:28;99816.56;;;18.74;65.96
17060;BME280;8646;49.716;9.266;2023-05-15T08:32:32;99811.63;;;18.67;66.09
17060;BME280;8646;49.716;9.266;2023-05-15T08:35:36;99807.16;;;18.55;65.69
17060;BME280;8646;49.716;9.266;2023-05-15T08:38:43;99801.56;;;18.46;66.57
17060;BME280;8646;49.716;9.266;2023-05-15T08:41:50;99804.94;;;18.38;66.51
17060;BME280;8646;49.716;9.266;2023-05-15T08:44:54;99800.97;;;18.20;67.15
17060;BME280;8646;49.716;9.266;2023-05-15T08:47:59;99808.47;;;18.07;67.39
17060;BME280;8646;49.716;9.266;2023-05-15T08:51:07;99796.88;;;18.03;67.99
17060;BME280;8646;49.716;9.266;2023-05-15T08:54:12;99798.63;;;18.04;68.26
17060;BME280;8646;49.716;9.266;2023-05-15T08:57:15;99793.03;;;18.06;68.17
17060;BME280;8646;49.716;9.266;2023-05-15T09:00:20;99799.97;;;18.10;68.38
17060;BME280;8646;49.716;9.266;2023-05-15T09:03:23;99795.91;;;18.04;68.37
17060;BME280;8646;49.716;9.266;2023-05-15T09:06:26;99790.19;;;18.07;67.15
17060;BME280;8646;49.716;9.266;2023-05-15T09:09:32;99790.53;;;18.14;66.71
17060;BME280;8646;49.716;9.266;2023-05-15T09:12:40;99772.09;;;18.27;66.11
17060;BME280;8646;49.716;9.266;2023-05-15T09:15:44;99779.03;;;18.42;66.18
17060;BME280;8646;49.716;9.266;2023-05-15T09:18:48;99777.28;;;18.63;65.43
17060;BME280;8646;49.716;9.266;2023-05-15T09:21:51;99769.41;;;18.70;64.52
17060;BME280;8646;49.716;9.266;2023-05-15T09:24:55;99765.97;;;18.89;63.32
17060;BME280;8646;49.716;9.266;2023-05-15T09:27:58;99768.38;;;19.03;62.45
17060;BME280;8646;49.716;9.266;2023-05-15T09:31:02;99756.13;;;19.07;57.17
17060;BME280;8646;49.716;9.266;2023-05-15T09:34:06;99763.84;;;19.13;56.55
17060;BME280;8646;49.716;9.266;2023-05-15T09:37:26;99752.41;;;19.29;55.46
17060;BME280;8646;49.716;9.266;2023-05-15T09:40:31;99756.03;;;19.29;56.92
17060;BME280;8646;49.716;9.266;2023-05-15T09:43:36;99745.75;;;19.31;54.48
17060;BME280;8646;49.716;9.266;2023-05-15T09:46:39;99754.50;;;19.46;54.25
17060;BME280;8646;49.716;9.266;2023-05-15T09:49:43;99747.31;;;19.45;52.07
17060;BME280;8646;49.716;9.266;2023-05-15T09:52:46;99751.78;;;19.25;54.15
17060;BME280;8646;49.716;9.266;2023-05-15T09:55:51;99750.91;;;19.25;55.07
17060;BME280;8646;49.716;9.266;2023-05-15T09:58:55;99741.47;;;19.38;54.55
17060;BME280;8646;49.716;9.266;2023-05-15T10:01:58;99749.13;;;19.56;51.94
17060;BME280;8646;49.716;9.266;2023-05-15T10:05:01;99732.31;;;19.49;50.82
17060;BME280;8646;49.716;9.266;2023-05-15T10:08:07;99734.69;;;19.54;52.32
17060;BME280;8646;49.716;9.266;2023-05-15T10:11:12;99743.38;;;19.59;51.17
17060;BME280;8646;49.716;9.266;2023-05-15T10:14:16;99730.59;;;19.48;51.52
17060;BME280;8646;49.716;9.266;2023-05-15T10:17:19;99731.72;;;19.46;51.67
17060;BME280;8646;49.716;9.266;2023-05-15T10:20:24;99726.03;;;19.58;51.54
17060;BME280;8646;49.716;9.266;2023-05-15T10:23:28;99729.13;;;19.74;50.32
17060;BME280;8646;49.716;9.266;2023-05-15T10:26:39;99696.41;;;19.92;48.97
17060;BME280;8646;49.716;9.266;2023-05-15T10:29:42;99714.38;;;20.15;49.00
17060;BME280;8646;49.716;9.266;2023-05-15T10:32:47;99699.59;;;19.97;49.83
17060;BME280;8646;49.716;9.266;2023-05-15T10:35:50;99690.06;;;20.11;50.00
17060;BME280;8646;49.716;9.266;2023-05-15T10:38:53;99679.88;;;20.32;47.15
17060;BME280;8646;49.716;9.266;2023-05-15T10:41:58;99679.31;;;20.38;47.53
17060;BME280;8646;49.716;9.266;2023-05-15T10:45:06;99669.06;;;20.40;46.64
17060;BME280;8646;49.716;9.266;2023-05-15T10:48:10;99664.59;;;20.49;46.00
17060;BME280;8646;49.716;9.266;2023-05-15T10:51:14;99670.50;;;20.54;46.50
17060;BME280;8646;49.716;9.266;2023-05-15T10:54:17;99662.13;;;20.75;46.23
17060;BME280;8646;49.716;9.266;2023-05-15T10:57:22;99642.88;;;20.65;45.89
17060;BME280;8646;49.716;9.266;2023-05-15T11:00:26;99654.16;;;20.81;45.41
17060;BME280;8646;49.716;9.266;2023-05-15T11:03:36;99650.34;;;20.92;45.35
17060;BME280;8646;49.716;9.266;2023-05-15T11:07:10;99634.44;;;20.95;42.85
17060;BME280;8646;49.716;9.266;2023-05-15T11:10:35;99631.09;;;21.02;43.09
17060;BME280;8646;49.716;9.266;2023-05-15T11:14:12;99631.28;;;20.90;43.52
17060;BME280;8646;49.716;9.266;2023-05-15T11:17:14;99635.19;;;20.78;44.28
17060;BME280;8646;49.716;9.266;2023-05-15T11:20:18;99623.22;;;21.16;43.33
17060;BME280;8646;49.716;9.266;2023-05-15T11:23:21;99601.06;;;21.27;40.58
17060;BME280;8646;49.716;9.266;2023-05-15T11:26:31;99615.53;;;21.39;40.98
17060;BME280;8646;49.716;9.266;2023-05-15T11:29:35;99615.41;;;21.31;41.58
17060;BME280;8646;49.716;9.266;2023-05-15T11:32:53;99607.84;;;21.33;39.28
17060;BME280;8646;49.716;9.266;2023-05-15T11:35:58;99612.78;;;21.39;39.36
17060;BME280;8646;49.716;9.266;2023-05-15T11:39:08;99607.03;;;21.13;40.88
17060;BME280;8646;49.716;9.266;2023-05-15T11:42:12;99612.41;;;21.15;41.70
17060;BME280;8646;49.716;9.266;2023-05-15T11:45:16;99625.03;;;20.88;42.74
17060;BME280;8646;49.716;9.266;2023-05-15T11:48:20;99619.41;;;20.90;42.38
17060;BME280;8646;49.716;9.266;2023-05-15T11:51:26;99615.94;;;20.78;41.19
17060;BME280;8646;49.716;9.266;2023-05-15T11:54:30;99621.28;;;20.89;41.99
17060;BME280;8646;49.716;9.266;2023-05-15T11:57:36;99612.81;;;21.29;39.49
17060;BME280;8646;49.716;9.266;2023-05-15T12:00:41;99629.28;;;21.39;39.33
17060;BME280;8646;49.716;9.266;2023-05-15T12:03:46;99615.94;;;21.44;40.04
17060;BME280;8646;49.716;9.266;2023-05-15T12:06:50;99616.84;;;21.62;41.04
17060;BME280;8646;49.716;9.266;2023-05-15T12:09:53;99628.41;;;21.93;40.19
17060;BME280;8646;49.716;9.266;2023-05-15T12:12:57;99636.53;;;21.95;40.62
17060;BME280;8646;49.716;9.266;2023-05-15T12:16:02;99624.38;;;22.15;40.69
17060;BME280;8646;49.716;9.266;2023-05-15T12:19:05;99624.63;;;22.39;40.62
17060;BME280;8646;49.716;9.266;2023-05-15T12:22:08;99627.16;;;22.51;39.82
17060;BME280;8646;49.716;9.266;2023-05-15T12:25:15;99626.53;;;22.39;39.69
17060;BME280;8646;49.716;9.266;2023-05-15T12:28:18;99642.44;;;22.27;39.45
17060;BME280;8646;49.716;9.266;2023-05-15T12:31:22;99653.59;;;21.81;40.23
17060;BME280;8646;49.716;9.266;2023-05-15T12:34:25;99651.31;;;21.66;40.58
17060;BME280;8646;49.716;9.266;2023-05-15T12:37:30;99659.59;;;21.57;41.45
17060;BME280;8646;49.716;9.266;2023-05-15T12:40:35;99658.53;;;21.40;42.43
17060;BME280;8646;49.716;9.266;2023-05-15T12:43:38;99656.22;;;21.36;42.28
17060;BME280;8646;49.716;9.266;2023-05-15T12:46:43;99665.69;;;20.94;43.17
17060;BME280;8646;49.716;9.266;2023-05-15T12:49:46;99668.44;;;20.94;43.19
17060;BME280;8646;49.716;9.266;2023-05-15T12:52:50;99664.41;;;20.99;41.97
17060;BME280;8646;49.716;9.266;2023-05-15T12:55:53;99650.66;;;20.99;41.52
17060;BME280;8646;49.716;9.266;2023-05-15T12:58:56;99654.53;;;21.06;41.75
17060;BME280;8646;49.716;9.266;2023-05-15T13:02:01;99653.53;;;21.07;42.00
17060;BME280;8646;49.716;9.266;2023-05-15T13:05:04;99640.19;;;21.21;41.66
17060;BME280;8646;49.716;9.266;2023-05-15T13:08:07;99638.56;;;21.38;41.15
17060;BME280;8646;49.716;9.266;2023-05-15T13:11:11;99630.38;;;21.56;40.45
17060;BME280;8646;49.716;9.266;2023-05-15T13:14:16;99641.75;;;21.70;39.85
17060;BME280;8646;49.716;9.266;2023-05-15T13:17:21;99621.47;;;21.72;38.81
17060;BME280;8646;49.716;9.266;2023-05-15T13:20:24;99621.22;;;21.83;39.24
17060;BME280;8646;49.716;9.266;2023-05-15T13:23:27;99631.38;;;21.82;38.73
17060;BME280;8646;49.716;9.266;2023-05-15T13:26:30;99636.84;;;21.92;39.45
17060;BME280;8646;49.716;9.266;2023-05-15T13:29:33;99625.41;;;22.14;38.60
17060;BME280;8646;49.716;9.266;2023-05-15T13:32:37;99620.47;;;22.35;37.66
17060;BME280;8646;49.716;9.266;2023-05-15T13:35:40;99622.59;;;22.77;36.36
17060;BME280;8646;49.716;9.266;2023-05-15T13:39:04;99630.22;;;22.83;37.46
17060;BME280;8646;49.716;9.266;2023-05-15T13:42:07;99636.91;;;22.98;37.99
17060;BME280;8646;49.716;9.266;2023-05-15T13:45:11;99653.63;;;22.43;39.00
17060;BME280;8646;49.716;9.266;2023-05-15T13:48:16;99654.50;;;21.99;40.33
17060;BME280;8646;49.716;9.266;2023-05-15T13:51:20;99667.34;;;21.81;41.20
17060;BME280;8646;49.716;9.266;2023-05-15T13:54:23;99692.25;;;21.52;42.08
17060;BME280;8646;49.716;9.266;2023-05-15T13:57:25;99668.59;;;21.22;42.31
17060;BME280;8646;49.716;9.266;2023-05-15T14:00:28;99702.34;;;21.24;41.83
17060;BME280;8646;49.716;9.266;2023-05-15T14:03:32;99675.69;;;20.95;42.32
17060;BME280;8646;49.716;9.266;2023-05-15T14:06:35;99680.91;;;20.99;41.93
17060;BME280;8646;49.716;9.266;2023-05-15T14:09:38;99683.53;;;20.90;42.11
17060;BME280;8646;49.716;9.266;2023-05-15T14:12:41;99672.94;;;20.86;42.52
17060;BME280;8646;49.716;9.266;2023-05-15T14:15:44;99678.44;;;20.95;42.52
17060;BME280;8646;49.716;9.266;2023-05-15T14:18:48;99674.34;;;21.28;42.74
17060;BME280;8646;49.716;9.266;2023-05-15T14:21:51;99672.19;;;21.69;42.14
17060;BME280;8646;49.716;9.266;2023-05-15T14:24:54;99671.78;;;21.91;42.00
17060;BME280;8646;49.716;9.266;2023-05-15T14:27:57;99667.50;;;22.06;41.56
17060;BME280;8646;49.716;9.266;2023-05-15T14:31:00;99664.50;;;22.00;40.10
17060;BME280;8646;49.716;9.266;2023-05-15T14:34:04;99653.47;;;21.73;41.67
17060;BME280;8646;49.716;9.266;2023-05-15T14:37:07;99644.56;;;21.51;42.49
17060;BME280;8646;49.716;9.266;2023-05-15T14:40:11;99638.06;;;21.52;42.71
17060;BME280;8646;49.716;9.266;2023-05-15T14:43:14;99636.66;;;21.39;42.91
17060;BME280;8646;49.716;9.266;2023-05-15T14:46:17;99633.94;;;21.29;43.44
17060;BME280;8646;49.716;9.266;2023-05-15T14:49:22;99646.38;;;21.33;43.48
17060;BME280;8646;49.716;9.266;2023-05-15T14:52:26;99651.00;;;21.32;43.76
17060;BME280;8646;49.716;9.266;2023-05-15T14:55:31;99630.19;;;21.30;43.48
17060;BME280;8646;49.716;9.266;2023-05-15T14:58:35;99655.31;;;21.45;43.97
17060;BME280;8646;49.716;9.266;2023-05-15T15:01:38;99655.25;;;21.64;43.38
17060;BME280;8646;49.716;9.266;2023-05-15T15:04:42;99659.38;;;21.78;42.77
17060;BME280;8646;49.716;9.266;2023-05-15T15:08:00;99656.69;;;21.95;42.45
17060;BME280;8646;49.716;9.266;2023-05-15T15:11:03;99652.72;;;22.07;41.66
17060;BME280;8646;49.716;9.266;2023-05-15T15:14:07;99658.06;;;22.09;40.18
17060;BME280;8646;49.716;9.266;2023-05-15T15:17:10;99657.34;;;22.07;39.88
17060;BME280;8646;49.716;9.266;2023-05-15T15:20:23;99664.31;;;22.11;39.85
17060;BME280;8646;49.716;9.266;2023-05-15T15:23:27;99661.94;;;22.16;39.98
17060;BME280;8646;49.716;9.266;2023-05-15T15:26:33;99664.63;;;22.26;39.80
17060;BME280;8646;49.716;9.266;2023-05-15T15:29:36;99663.28;;;22.30;39.73
17060;BME280;8646;49.716;9.266;2023-05-15T15:32:39;99668.78;;;22.30;39.38
17060;BME280;8646;49.716;9.266;2023-05-15T15:35:45;99670.28;;;22.24;39.48
17060;BME280;8646;49.716;9.266;2023-05-15T15:38:48;99658.00;;;22.19;39.24
17060;BME280;8646;49.716;9.266;2023-05-15T15:41:51;99664.69;;;22.16;39.63
17060;BME280;8646;49.716;9.266;2023-05-15T15:44:55;99659.81;;;22.10;39.93
17060;BME280;8646;49.716;9.266;2023-05-15T15:47:59;99662.56;;;22.10;39.86
17060;BME280;8646;49.716;9.266;2023-05-15T15:51:04;99660.88;;;21.99;40.13
17060;BME280;8646;49.716;9.266;2023-05-15T15:54:08;99667.69;;;21.95;40.54
17060;BME280;8646;49.716;9.266;2023-05-15T15:57:20;99676.63;;;21.80;40.81
17060;BME280;8646;49.716;9.266;2023-05-15T16:01:03;99677.22;;;21.74;41.52
17060;BME280;8646;49.716;9.266;2023-05-15T16:04:32;99669.34;;;21.51;42.10
17060;BME280;8646;49.716;9.266;2023-05-15T16:08:00;99660.84;;;21.35;42.24
17060;BME280;8646;49.716;9.266;2023-05-15T16:11:28;99685.75;;;21.43;42.67
17060;BME280;8646;49.716;9.266;2023-05-15T16:14:49;99679.44;;;21.23;43.62
17060;BME280;8646;49.716;9.266;2023-05-15T16:21:58;99682.66;;;20.80;44.89
17060;BME280;8646;49.716;9.266;2023-05-15T16:25:33;99681.38;;;20.65;45.54
17060;BME280;8646;49.716;9.266;2023-05-15T16:28:50;99692.78;;;20.61;45.89
17060;BME280;8646;49.716;9.266;2023-05-15T16:32:09;99689.16;;;20.60;46.28
17060;BME280;8646;49.716;9.266;2023-05-15T16:35:29;99658.00;;;20.11;46.97
17060;BME280;8646;49.716;9.266;2023-05-15T16:42:50;99652.50;;;20.21;47.42